sensor_id;sensor_type;location;lat;lon;timestamp;temperature;humidity
3288;DHT22;3260;52.438;13.502;2022-07-17T04:01:56;12.40;1.00
3288;DHT22;3260;52.438;13.502;2022-07-17T04:04:24;12.50;1.00
3288;DHT22;3260;52.438;13.502;2022-07-17T04:06:54;12.50;1.00
3288;DHT22;3260;52.438;13.502;2022-07-17T04:09:22;12.50;1.00
3288;DHT22;3260;52.438;13.502;2022-07-17T04:11:50;12.60;1.00
3288;DHT22;3260;52.438;13.502;2022-07-17T04:14:18;12.70;1.00
3288;DHT22;3260;52.438;13.502;2022-07-17T04:16:46;12.70;1.00
3288;DHT22;3260;52.438;13.502;2022-07-17T04:19:15;12.70;1.00
3288;DHT22;3260;52.438;13.502;2022-07-17T04:21:43;12.80;1.00
3288;DHT22;3260;52.438;13.502;2022-07-17T04:24:12;12.80;1.00
3288;DHT22;3260;52.438;13.502;2022-07-17T04:26:40;12.90;1.00
3288;DHT22;3260;52.438;13.502;2022-07-17T04:29:08;12.90;1.00
3288;DHT22;3260;52.438;13.502;2022-07-17T04:31:36;13.00;1.00
3288;DHT22;3260;52.438;13.502;2022-07-17T04:34:04;13.10;1.00
3288;DHT22;3260;52.438;13.502;2022-07-17T04:36:34;13.20;1.00
3288;DHT22;3260;52.438;13.502;2022-07-17T04:39:02;13.30;1.00
3288;DHT22;3260;52.438;13.502;2022-07-17T04:41:30;13.50;1.00
3288;DHT22;3260;52.438;13.502;2022-07-17T04:43:58;13.50;1.00
3288;DHT22;3260;52.438;13.502;2022-07-17T04:46:27;13.60;1.00
3288;DHT22;3260;52.438;13.502;2022-07-17T04:48:57;13.70;1.00
3288;DHT22;3260;52.438;13.502;2022-07-17T04:51:26;13.90;1.00
3288;DHT22;3260;52.438;13.502;2022-07-17T04:54:04;14.00;1.00
3288;DHT22;3260;52.438;13.502;2022-07-17T04:56:32;14.20;1.00
3288;DHT22;3260;52.438;13.502;2022-07-17T04:59:00;14.30;1.00
3288;DHT22;3260;52.438;13.502;2022-07-17T05:01:28;14.40;1.00
3288;DHT22;3260;52.438;13.502;2022-07-17T05:03:57;14.40;1.00
3288;DHT22;3260;52.438;13.502;2022-07-17T05:06:26;14.50;1.00
3288;DHT22;3260;52.438;13.502;2022-07-17T05:08:54;14.60;1.00
3288;DHT22;3260;52.438;13.502;2022-07-17T05:11:23;14.70;1.00
3288;DHT22;3260;52.438;13.502;2022-07-17T05:13:52;14.70;1.00
3288;DHT22;3260;52.438;13.502;2022-07-17T05:16:20;14.80;1.00
3288;DHT22;3260;52.438;13.502;2022-07-17T05:18:49;14.80;1.00
3288;DHT22;3260;52.438;13.502;2022-07-17T05:21:17;14.80;1.00
3288;DHT22;3260;52.438;13.502;2022-07-17T05:23:45;14.90;1.00
3288;DHT22;3260;52.438;13.502;2022-07-17T05:26:13;15.00;1.00
3288;DHT22;3260;52.438;13.502;2022-07-17T05:28:43;15.10;1.00
3288;DHT22;3260;52.438;13.502;2022-07-17T05:31:11;15.20;1.00
3288;DHT22;3260;52.438;13.502;2022-07-17T05:33:39;15.30;1.00
3288;DHT22;3260;52.438;13.502;2022-07-17T05:36:07;15.40;1.00
3288;DHT22;3260;52.438;13.502;2022-07-17T05:38:36;15.60;1.00
3288;DHT22;3260;52.438;13.502;2022-07-17T05:41:05;15.70;1.00
3288;DHT22;3260;52.438;13.502;2022-07-17T05:43:33;15.90;1.00
3288;DHT22;3260;52.438;13.502;2022-07-17T05:46:03;15.90;1.00
3288;DHT22;3260;52.438;13.502;2022-07-17T05:48:31;16.00;1.00
3288;DHT22;3260;52.438;13.502;2022-07-17T05:50:59;16.10;1.00
3288;DHT22;3260;52.438;13.502;2022-07-17T05:53:37;16.10;1.00
3288;DHT22;3260;52.438;13.502;2022-07-17T05:56:06;16.20;1.00
3288;DHT22;3260;52.438;13.502;2022-07-17T05:58:34;16.20;1.00
3288;DHT22;3260;52.438;13.502;2022-07-17T06:01:03;16.20;1.00
3288;DHT22;3260;52.438;13.502;2022-07-17T06:03:32;16.30;1.00
3288;DHT22;3260;52.438;13.502;2022-07-17T06:06:00;16.40;1.00
3288;DHT22;3260;52.438;13.502;2022-07-17T06:08:28;16.60;1.00
3288;DHT22;3260;52.438;13.502;2022-07-17T06:10:56;16.60;1.00
3288;DHT22;3260;52.438;13.502;2022-07-17T06:13:25;16.70;1.00
3288;DHT22;3260;52.438;13.502;2022-07-17T06:15:53;16.60;1.00
3288;DHT22;3260;52.438;13.502;2022-07-17T06:18:26;16.80;1.00
3288;DHT22;3260;52.438;13.502;2022-07-17T06:20:55;17.00;1.00
3288;DHT22;3260;52.438;13.502;2022-07-17T06:23:23;17.20;1.00
3288;DHT22;3260;52.438;13.502;2022-07-17T06:25:51;17.30;1.00
3288;DHT22;3260;52.438;13.502;2022-07-17T06:28:19;17.30;1.00
3288;DHT22;3260;52.438;13.502;2022-07-17T06:30:48;17.30;1.00
3288;DHT22;3260;52.438;13.502;2022-07-17T06:33:16;17.40;1.00
3288;DHT22;3260;52.438;13.502;2022-07-17T06:35:45;17.40;1.00
3288;DHT22;3260;52.438;13.502;2022-07-17T06:38:14;17.50;1.00
3288;DHT22;3260;52.438;13.502;2022-07-17T06:40:42;17.80;1.00
3288;DHT22;3260;52.438;13.502;2022-07-17T06:43:10;17.90;1.00
3288;DHT22;3260;52.438;13.502;2022-07-17T06:45:38;18.20;1.00
3288;DHT22;3260;52.438;13.502;2022-07-17T06:48:06;18.10;1.00
3288;DHT22;3260;52.438;13.502;2022-07-17T06:50:35;18.10;1.00
3288;DHT22;3260;52.438;13.502;2022-07-17T06:53:05;18.30;1.00
3288;DHT22;3260;52.438;13.502;2022-07-17T06:55:33;18.40;1.00
3288;DHT22;3260;52.438;13.502;2022-07-17T06:58:01;18.50;1.00
3288;DHT22;3260;52.438;13.502;2022-07-17T07:00:29;18.60;1.00
3288;DHT22;3260;52.438;13.502;2022-07-17T07:02:58;18.60;1.00
3288;DHT22;3260;52.438;13.502;2022-07-17T07:05:26;18.50;1.00
3288;DHT22;3260;52.438;13.502;2022-07-17T07:07:54;18.60;1.00
3288;DHT22;3260;52.438;13.502;2022-07-17T07:10:23;18.70;1.00
3288;DHT22;3260;52.438;13.502;2022-07-17T07:12:51;18.80;1.00
3288;DHT22;3260;52.438;13.502;2022-07-17T07:15:22;18.90;1.00
3288;DHT22;3260;52.438;13.502;2022-07-17T07:17:51;19.00;1.00
3288;DHT22;3260;52.438;13.502;2022-07-17T07:20:19;19.20;1.00
3288;DHT22;3260;52.438;13.502;2022-07-17T07:22:48;19.40;1.00
3288;DHT22;3260;52.438;13.502;2022-07-17T07:25:17;19.60;1.00
3288;DHT22;3260;52.438;13.502;2022-07-17T07:27:46;19.70;1.00
3288;DHT22;3260;52.438;13.502;2022-07-17T07:30:15;19.90;1.00
3288;DHT22;3260;52.438;13.502;2022-07-17T07:32:43;20.00;1.00
3288;DHT22;3260;52.438;13.502;2022-07-17T07:35:11;20.10;1.00
3288;DHT22;3260;52.438;13.502;2022-07-17T07:37:39;19.90;1.00
3288;DHT22;3260;52.438;13.502;2022-07-17T07:40:09;19.80;1.00
3288;DHT22;3260;52.438;13.502;2022-07-17T07:42:38;19.80;1.00
3288;DHT22;3260;52.438;13.502;2022-07-17T07:45:09;19.90;1.00
3288;DHT22;3260;52.438;13.502;2022-07-17T07:47:41;20.10;1.00
3288;DHT22;3260;52.438;13.502;2022-07-17T07:50:10;20.30;1.00
3288;DHT22;3260;52.438;13.502;2022-07-17T07:52:39;20.40;1.00
3288;DHT22;3260;52.438;13.502;2022-07-17T07:55:09;20.20;1.00
3288;DHT22;3260;52.438;13.502;2022-07-17T07:57:46;19.80;1.00
3288;DHT22;3260;52.438;13.502;2022-07-17T08:00:16;19.40;1.00
3288;DHT22;3260;52.438;13.502;2022-07-17T08:02:45;19.10;1.00
3288;DHT22;3260;52.438;13.502;2022-07-17T08:05:13;19.00;1.00
3288;DHT22;3260;52.438;13.502;2022-07-17T08:07:41;18.90;1.00
3288;DHT22;3260;52.438;13.502;2022-07-17T08:10:09;18.80;1.00
3288;DHT22;3260;52.438;13.502;2022-07-17T08:12:38;18.80;1.00
3288;DHT22;3260;52.438;13.502;2022-07-17T08:15:12;18.70;1.00
3288;DHT22;3260;52.438;13.502;2022-07-17T08:17:43;18.60;1.00
3288;DHT22;3260;52.438;13.502;2022-07-17T08:20:12;18.60;1.00
3288;DHT22;3260;52.438;13.502;2022-07-17T08:22:41;18.60;1.00
3288;DHT22;3260;52.438;13.502;2022-07-17T08:25:31;18.50;1.00
3288;DHT22;3260;52.438;13.502;2022-07-17T08:28:01;18.70;1.00
3288;DHT22;3260;52.438;13.502;2022-07-17T08:30:29;18.90;1.00
3288;DHT22;3260;52.438;13.502;2022-07-17T08:33:03;19.00;1.00
3288;DHT22;3260;52.438;13.502;2022-07-17T08:35:33;19.00;1.00
3288;DHT22;3260;52.438;13.502;2022-07-17T08:38:02;19.20;1.00
3288;DHT22;3260;52.438;13.502;2022-07-17T08:40:33;19.30;1.00
3288;DHT22;3260;52.438;13.502;2022-07-17T08:43:04;19.70;1.00
3288;DHT22;3260;52.438;13.502;2022-07-17T08:45:34;20.30;1.00
3288;DHT22;3260;52.438;13.502;2022-07-17T08:48:15;20.90;1.00
3288;DHT22;3260;52.438;13.502;2022-07-17T08:50:46;21.20;1.00
3288;DHT22;3260;52.438;13.502;2022-07-17T08:53:15;21.40;1.00
3288;DHT22;3260;52.438;13.502;2022-07-17T08:55:44;21.20;1.00
3288;DHT22;3260;52.438;13.502;2022-07-17T08:58:14;21.10;1.00
3288;DHT22;3260;52.438;13.502;2022-07-17T09:00:43;21.20;1.00
3288;DHT22;3260;52.438;13.502;2022-07-17T09:03:14;21.40;1.00
3288;DHT22;3260;52.438;13.502;2022-07-17T09:05:45;21.60;1.00
3288;DHT22;3260;52.438;13.502;2022-07-17T09:08:18;21.90;1.00
3288;DHT22;3260;52.438;13.502;2022-07-17T09:10:49;22.10;1.00
3288;DHT22;3260;52.438;13.502;2022-07-17T09:13:21;22.00;1.00
3288;DHT22;3260;52.438;13.502;2022-07-17T09:15:57;22.10;1.00
3288;DHT22;3260;52.438;13.502;2022-07-17T09:18:43;22.20;1.00
3288;DHT22;3260;52.438;13.502;2022-07-17T09:21:17;22.10;1.00
3288;DHT22;3260;52.438;13.502;2022-07-17T09:23:57;22.10;1.00
3288;DHT22;3260;52.438;13.502;2022-07-17T09:26:26;22.30;1.00
3288;DHT22;3260;52.438;13.502;2022-07-17T09:28:56;22.50;1.00
3288;DHT22;3260;52.438;13.502;2022-07-17T09:31:25;22.60;1.00
3288;DHT22;3260;52.438;13.502;2022-07-17T09:33:56;22.70;1.00
3288;DHT22;3260;52.438;13.502;2022-07-17T09:36:26;22.90;1.00
3288;DHT22;3260;52.438;13.502;2022-07-17T09:38:57;22.80;1.00
3288;DHT22;3260;52.438;13.502;2022-07-17T09:41:26;23.10;1.00
3288;DHT22;3260;52.438;13.502;2022-07-17T09:44:00;23.10;1.00
3288;DHT22;3260;52.438;13.502;2022-07-17T09:46:31;23.00;1.00
3288;DHT22;3260;52.438;13.502;2022-07-17T09:49:04;23.00;1.00
3288;DHT22;3260;52.438;13.502;2022-07-17T09:51:35;23.10;1.00
3288;DHT22;3260;52.438;13.502;2022-07-17T09:54:07;22.80;1.00
3288;DHT22;3260;52.438;13.502;2022-07-17T09:56:39;22.60;1.00
3288;DHT22;3260;52.438;13.502;2022-07-17T09:59:09;22.30;1.00
3288;DHT22;3260;52.438;13.502;2022-07-17T10:01:39;22.00;1.00
3288;DHT22;3260;52.438;13.502;2022-07-17T10:04:11;22.00;1.00
3288;DHT22;3260;52.438;13.502;2022-07-17T10:06:40;21.90;1.00
3288;DHT22;3260;52.438;13.502;2022-07-17T10:09:08;21.90;1.00
3288;DHT22;3260;52.438;13.502;2022-07-17T10:11:39;21.80;1.00
3288;DHT22;3260;52.438;13.502;2022-07-17T10:14:15;21.60;1.00
3288;DHT22;3260;52.438;13.502;2022-07-17T10:16:45;21.60;1.00
3288;DHT22;3260;52.438;13.502;2022-07-17T10:19:19;21.70;1.00
3288;DHT22;3260;52.438;13.502;2022-07-17T10:21:54;21.90;1.00
3288;DHT22;3260;52.438;13.502;2022-07-17T10:24:24;22.00;1.00
3288;DHT22;3260;52.438;13.502;2022-07-17T10:26:54;22.10;1.00
3288;DHT22;3260;52.438;13.502;2022-07-17T10:29:30;22.20;1.00
3288;DHT22;3260;52.438;13.502;2022-07-17T10:32:06;22.30;1.00
3288;DHT22;3260;52.438;13.502;2022-07-17T10:34:42;22.20;1.00
3288;DHT22;3260;52.438;13.502;2022-07-17T10:37:20;22.10;1.00
3288;DHT22;3260;52.438;13.502;2022-07-17T10:40:06;22.30;1.00
3288;DHT22;3260;52.438;13.502;2022-07-17T10:42:40;22.90;1.00
3288;DHT22;3260;52.438;13.502;2022-07-17T10:45:21;22.90;1.00
3288;DHT22;3260;52.438;13.502;2022-07-17T10:47:56;22.50;1.00
3288;DHT22;3260;52.438;13.502;2022-07-17T10:50:30;22.30;1.00
3288;DHT22;3260;52.438;13.502;2022-07-17T10:53:05;22.10;1.00
3288;DHT22;3260;52.438;13.502;2022-07-17T10:55:38;22.00;1.00
3288;DHT22;3260;52.438;13.502;2022-07-17T10:58:19;22.10;1.00
3288;DHT22;3260;52.438;13.502;2022-07-17T11:01:00;22.60;1.00
3288;DHT22;3260;52.438;13.502;2022-07-17T11:03:31;23.10;1.00
3288;DHT22;3260;52.438;13.502;2022-07-17T11:06:09;23.50;1.00
3288;DHT22;3260;52.438;13.502;2022-07-17T11:08:43;23.90;1.00
3288;DHT22;3260;52.438;13.502;2022-07-17T11:11:14;24.60;1.00
3288;DHT22;3260;52.438;13.502;2022-07-17T11:13:53;25.10;1.00
3288;DHT22;3260;52.438;13.502;2022-07-17T11:16:27;25.10;1.00
3288;DHT22;3260;52.438;13.502;2022-07-17T11:18:58;25.50;1.00
3288;DHT22;3260;52.438;13.502;2022-07-17T11:21:27;25.90;1.00
3288;DHT22;3260;52.438;13.502;2022-07-17T11:23:56;26.20;1.00
3288;DHT22;3260;52.438;13.502;2022-07-17T11:26:25;26.70;1.00
3288;DHT22;3260;52.438;13.502;2022-07-17T11:28:58;26.80;1.00
3288;DHT22;3260;52.438;13.502;2022-07-17T11:31:29;26.40;1.00
3288;DHT22;3260;52.438;13.502;2022-07-17T11:33:59;26.40;1.00
3288;DHT22;3260;52.438;13.502;2022-07-17T11:36:32;26.50;1.00
3288;DHT22;3260;52.438;13.502;2022-07-17T11:39:11;27.00;1.00
3288;DHT22;3260;52.438;13.502;2022-07-17T11:41:42;27.90;1.00
3288;DHT22;3260;52.438;13.502;2022-07-17T11:44:13;28.60;1.00
3288;DHT22;3260;52.438;13.502;2022-07-17T11:46:44;29.10;1.00
3288;DHT22;3260;52.438;13.502;2022-07-17T11:49:23;29.30;1.00
3288;DHT22;3260;52.438;13.502;2022-07-17T11:51:56;29.40;1.00
3288;DHT22;3260;52.438;13.502;2022-07-17T11:54:26;29.80;1.00
3288;DHT22;3260;52.438;13.502;2022-07-17T11:56:55;30.80;1.00
3288;DHT22;3260;52.438;13.502;2022-07-17T11:59:27;31.80;1.00
3288;DHT22;3260;52.438;13.502;2022-07-17T12:02:06;32.60;1.00
3288;DHT22;3260;52.438;13.502;2022-07-17T12:04:36;33.00;1.00
3288;DHT22;3260;52.438;13.502;2022-07-17T12:07:06;33.30;1.00
3288;DHT22;3260;52.438;13.502;2022-07-17T12:09:34;34.00;1.00
3288;DHT22;3260;52.438;13.502;2022-07-17T12:12:02;34.70;1.00
3288;DHT22;3260;52.438;13.502;2022-07-17T12:14:31;35.50;1.00
3288;DHT22;3260;52.438;13.502;2022-07-17T12:17:03;35.80;1.00
3288;DHT22;3260;52.438;13.502;2022-07-17T12:19:32;36.40;1.00
3288;DHT22;3260;52.438;13.502;2022-07-17T12:22:02;36.30;1.00
3288;DHT22;3260;52.438;13.502;2022-07-17T12:24:36;36.80;1.00
3288;DHT22;3260;52.438;13.502;2022-07-17T12:27:07;37.20;1.00
3288;DHT22;3260;52.438;13.502;2022-07-17T12:29:37;38.20;1.00
3288;DHT22;3260;52.438;13.502;2022-07-17T12:32:08;38.60;1.00
3288;DHT22;3260;52.438;13.502;2022-07-17T12:34:39;39.20;1.00
3288;DHT22;3260;52.438;13.502;2022-07-17T12:37:12;39.90;1.00
3288;DHT22;3260;52.438;13.502;2022-07-17T12:39:42;40.80;1.00
3288;DHT22;3260;52.438;13.502;2022-07-17T12:42:10;41.50;1.00
3288;DHT22;3260;52.438;13.502;2022-07-17T12:44:38;42.20;1.00
3288;DHT22;3260;52.438;13.502;2022-07-17T12:47:08;42.90;1.00
3288;DHT22;3260;52.438;13.502;2022-07-17T12:49:37;43.40;1.00
3288;DHT22;3260;52.438;13.502;2022-07-17T12:52:06;43.60;1.00
3288;DHT22;3260;52.438;13.502;2022-07-17T12:54:35;44.40;1.00
3288;DHT22;3260;52.438;13.502;2022-07-17T12:57:04;44.90;1.00
3288;DHT22;3260;52.438;13.502;2022-07-17T12:59:33;45.10;1.00
3288;DHT22;3260;52.438;13.502;2022-07-17T13:02:02;45.40;1.00
3288;DHT22;3260;52.438;13.502;2022-07-17T13:04:31;45.60;1.00
3288;DHT22;3260;52.438;13.502;2022-07-17T13:06:59;45.20;1.00
3288;DHT22;3260;52.438;13.502;2022-07-17T13:09:28;45.20;1.00
3288;DHT22;3260;52.438;13.502;2022-07-17T13:11:56;45.50;1.00
3288;DHT22;3260;52.438;13.502;2022-07-17T13:14:26;45.90;1.00
3288;DHT22;3260;52.438;13.502;2022-07-17T13:16:54;45.30;1.00
3288;DHT22;3260;52.438;13.502;2022-07-17T13:19:22;45.60;1.00
3288;DHT22;3260;52.438;13.502;2022-07-17T13:21:50;45.60;1.00
3288;DHT22;3260;52.438;13.502;2022-07-17T13:24:18;44.90;1.00
3288;DHT22;3260;52.438;13.502;2022-07-17T13:26:47;44.20;1.00
3288;DHT22;3260;52.438;13.502;2022-07-17T13:29:15;44.40;1.00
3288;DHT22;3260;52.438;13.502;2022-07-17T13:31:44;45.30;1.00
3288;DHT22;3260;52.438;13.502;2022-07-17T13:34:21;46.50;1.00
3288;DHT22;3260;52.438;13.502;2022-07-17T13:36:50;46.70;1.00
3288;DHT22;3260;52.438;13.502;2022-07-17T13:39:19;46.70;1.00
3288;DHT22;3260;52.438;13.502;2022-07-17T13:41:47;46.40;1.00
3288;DHT22;3260;52.438;13.502;2022-07-17T13:44:15;46.70;1.00
3288;DHT22;3260;52.438;13.502;2022-07-17T13:46:45;46.80;1.00
3288;DHT22;3260;52.438;13.502;2022-07-17T13:49:13;47.00;1.00
3288;DHT22;3260;52.438;13.502;2022-07-17T13:51:41;48.00;1.00
3288;DHT22;3260;52.438;13.502;2022-07-17T13:54:10;47.40;1.00
3288;DHT22;3260;52.438;13.502;2022-07-17T13:56:39;46.20;1.00
3288;DHT22;3260;52.438;13.502;2022-07-17T13:59:07;45.20;1.00
3288;DHT22;3260;52.438;13.502;2022-07-17T14:01:35;45.00;1.00
3288;DHT22;3260;52.438;13.502;2022-07-17T14:04:05;44.90;1.00
3288;DHT22;3260;52.438;13.502;2022-07-17T14:06:33;46.20;1.00
3288;DHT22;3260;52.438;13.502;2022-07-17T14:09:01;46.50;1.00
3288;DHT22;3260;52.438;13.502;2022-07-17T14:11:29;46.70;1.00
3288;DHT22;3260;52.438;13.502;2022-07-17T14:13:58;46.70;1.00
3288;DHT22;3260;52.438;13.502;2022-07-17T14:16:26;46.50;1.00
3288;DHT22;3260;52.438;13.502;2022-07-17T14:18:55;46.50;1.00
3288;DHT22;3260;52.438;13.502;2022-07-17T14:21:29;46.60;1.00
3288;DHT22;3260;52.438;13.502;2022-07-17T14:23:59;47.30;1.00
3288;DHT22;3260;52.438;13.502;2022-07-17T14:26:28;48.20;1.00
3288;DHT22;3260;52.438;13.502;2022-07-17T14:28:58;49.30;1.00
3288;DHT22;3260;52.438;13.502;2022-07-17T14:31:27;50.00;1.00
3288;DHT22;3260;52.438;13.502;2022-07-17T14:33:56;50.80;1.00
3288;DHT22;3260;52.438;13.502;2022-07-17T14:36:24;51.60;1.00
3288;DHT22;3260;52.438;13.502;2022-07-17T14:38:54;52.20;1.00
3288;DHT22;3260;52.438;13.502;2022-07-17T14:41:23;52.50;1.00
3288;DHT22;3260;52.438;13.502;2022-07-17T14:43:53;52.20;1.00
3288;DHT22;3260;52.438;13.502;2022-07-17T14:46:21;52.40;1.00
3288;DHT22;3260;52.438;13.502;2022-07-17T14:48:49;52.80;1.00
3288;DHT22;3260;52.438;13.502;2022-07-17T14:51:17;52.40;1.00
3288;DHT22;3260;52.438;13.502;2022-07-17T14:53:45;52.40;1.00
3288;DHT22;3260;52.438;13.502;2022-07-17T14:56:15;52.70;1.00
3288;DHT22;3260;52.438;13.502;2022-07-17T14:58:43;52.70;1.00
3288;DHT22;3260;52.438;13.502;2022-07-17T15:01:11;52.90;1.00
3288;DHT22;3260;52.438;13.502;2022-07-17T15:03:39;53.00;1.00
3288;DHT22;3260;52.438;13.502;2022-07-17T15:06:07;52.90;1.00
3288;DHT22;3260;52.438;13.502;2022-07-17T15:08:35;51.90;1.00
3288;DHT22;3260;52.438;13.502;2022-07-17T15:11:04;52.20;1.00
3288;DHT22;3260;52.438;13.502;2022-07-17T15:13:33;51.40;1.00
3288;DHT22;3260;52.438;13.502;2022-07-17T15:16:02;51.20;1.00
3288;DHT22;3260;52.438;13.502;2022-07-17T15:18:30;51.20;1.00
3288;DHT22;3260;52.438;13.502;2022-07-17T15:20:59;50.50;1.00
3288;DHT22;3260;52.438;13.502;2022-07-17T15:23:27;50.40;1.00
3288;DHT22;3260;52.438;13.502;2022-07-17T15:25:55;50.50;1.00
3288;DHT22;3260;52.438;13.502;2022-07-17T15:28:23;49.80;1.00
3288;DHT22;3260;52.438;13.502;2022-07-17T15:30:53;48.50;1.00
3288;DHT22;3260;52.438;13.502;2022-07-17T15:33:21;47.10;1.00
3288;DHT22;3260;52.438;13.502;2022-07-17T15:35:52;45.70;1.00
3288;DHT22;3260;52.438;13.502;2022-07-17T15:38:20;44.40;1.00
3288;DHT22;3260;52.438;13.502;2022-07-17T15:40:48;44.10;1.00
3288;DHT22;3260;52.438;13.502;2022-07-17T15:43:17;44.60;1.00
3288;DHT22;3260;52.438;13.502;2022-07-17T15:45:45;45.60;1.00
3288;DHT22;3260;52.438;13.502;2022-07-17T15:48:15;46.50;1.00
3288;DHT22;3260;52.438;13.502;2022-07-17T15:50:43;47.00;1.00
3288;DHT22;3260;52.438;13.502;2022-07-17T15:53:11;47.70;1.00
3288;DHT22;3260;52.438;13.502;2022-07-17T15:55:39;47.70;1.00
3288;DHT22;3260;52.438;13.502;2022-07-17T15:58:07;47.20;1.00
3288;DHT22;3260;52.438;13.502;2022-07-17T16:00:36;47.20;1.00
3288;DHT22;3260;52.438;13.502;2022-07-17T16:03:04;47.40;1.00
3288;DHT22;3260;52.438;13.502;2022-07-17T16:05:33;47.70;1.00
3288;DHT22;3260;52.438;13.502;2022-07-17T16:08:02;47.60;1.00
3288;DHT22;3260;52.438;13.502;2022-07-17T16:10:30;47.90;1.00
3288;DHT22;3260;52.438;13.502;2022-07-17T16:12:59;47.90;1.00
3288;DHT22;3260;52.438;13.502;2022-07-17T16:15:27;48.20;1.00
3288;DHT22;3260;52.438;13.502;2022-07-17T16:17:55;48.10;1.00
3288;DHT22;3260;52.438;13.502;2022-07-17T16:20:24;47.70;1.00
3288;DHT22;3260;52.438;13.502;2022-07-17T16:22:54;47.20;1.00
3288;DHT22;3260;52.438;13.502;2022-07-17T16:25:23;46.30;1.00
3288;DHT22;3260;52.438;13.502;2022-07-17T16:27:51;46.00;1.00
3288;DHT22;3260;52.438;13.502;2022-07-17T16:30:19;45.60;1.00
3288;DHT22;3260;52.438;13.502;2022-07-17T16:32:47;45.40;1.00
3288;DHT22;3260;52.438;13.502;2022-07-17T16:35:15;45.40;1.00
3288;DHT22;3260;52.438;13.502;2022-07-17T16:37:44;45.60;1.00
3288;DHT22;3260;52.438;13.502;2022-07-17T16:40:13;45.80;1.00
3288;DHT22;3260;52.438;13.502;2022-07-17T16:42:42;45.50;1.00
3288;DHT22;3260;52.438;13.502;2022-07-17T16:45:10;45.50;1.00
3288;DHT22;3260;52.438;13.502;2022-07-17T16:47:38;45.60;1.00
3288;DHT22;3260;52.438;13.502;2022-07-17T16:50:07;45.80;1.00
3288;DHT22;3260;52.438;13.502;2022-07-17T16:52:36;46.00;1.00
3288;DHT22;3260;52.438;13.502;2022-07-17T16:55:05;45.80;1.00
3288;DHT22;3260;52.438;13.502;2022-07-17T16:57:36;45.20;1.00
3288;DHT22;3260;52.438;13.502;2022-07-17T17:00:06;44.30;1.00
3288;DHT22;3260;52.438;13.502;2022-07-17T17:02:35;43.30;1.00
3288;DHT22;3260;52.438;13.502;2022-07-17T17:05:04;42.40;1.00
3288;DHT22;3260;52.438;13.502;2022-07-17T17:07:32;42.10;1.00
3288;DHT22;3260;52.438;13.502;2022-07-17T17:10:01;41.90;1.00
3288;DHT22;3260;52.438;13.502;2022-07-17T17:12:29;41.80;1.00
3288;DHT22;3260;52.438;13.502;2022-07-17T17:14:59;41.80;1.00
3288;DHT22;3260;52.438;13.502;2022-07-17T17:17:27;41.60;1.00
3288;DHT22;3260;52.438;13.502;2022-07-17T17:19:55;41.30;1.00
3288;DHT22;3260;52.438;13.502;2022-07-17T17:22:23;40.90;1.00
3288;DHT22;3260;52.438;13.502;2022-07-17T17:24:52;40.70;1.00
3288;DHT22;3260;52.438;13.502;2022-07-17T17:27:20;40.40;1.00
3288;DHT22;3260;52.438;13.502;2022-07-17T17:29:48;40.40;1.00
3288;DHT22;3260;52.438;13.502;2022-07-17T17:32:18;40.20;1.00
3288;DHT22;3260;52.438;13.502;2022-07-17T17:34:46;40.00;1.00
3288;DHT22;3260;52.438;13.502;2022-07-17T17:37:14;39.60;1.00
3288;DHT22;3260;52.438;13.502;2022-07-17T17:39:42;39.30;1.00
3288;DHT22;3260;52.438;13.502;2022-07-17T17:42:10;39.20;1.00
3288;DHT22;3260;52.438;13.502;2022-07-17T17:44:38;38.70;1.00
3288;DHT22;3260;52.438;13.502;2022-07-17T17:47:06;38.30;1.00
3288;DHT22;3260;52.438;13.502;2022-07-17T17:49:36;38.20;1.00
3288;DHT22;3260;52.438;13.502;2022-07-17T17:52:04;37.80;1.00
3288;DHT22;3260;52.438;13.502;2022-07-17T17:54:32;37.60;1.00
3288;DHT22;3260;52.438;13.502;2022-07-17T17:57:01;37.50;1.00
3288;DHT22;3260;52.438;13.502;2022-07-17T17:59:29;37.10;1.00
3288;DHT22;3260;52.438;13.502;2022-07-17T18:02:02;36.60;1.00
3288;DHT22;3260;52.438;13.502;2022-07-17T18:04:32;36.20;1.00
3288;DHT22;3260;52.438;13.502;2022-07-17T18:07:02;35.80;1.00
3288;DHT22;3260;52.438;13.502;2022-07-17T18:09:31;35.30;1.00
3288;DHT22;3260;52.438;13.502;2022-07-17T18:11:59;34.60;1.00
3288;DHT22;3260;52.438;13.502;2022-07-17T18:14:27;33.60;1.00
3288;DHT22;3260;52.438;13.502;2022-07-17T18:16:55;32.50;1.00
3288;DHT22;3260;52.438;13.502;2022-07-17T18:19:23;31.40;1.00
3288;DHT22;3260;52.438;13.502;2022-07-17T18:21:51;30.50;1.00
3288;DHT22;3260;52.438;13.502;2022-07-17T18:24:20;29.70;1.00
3288;DHT22;3260;52.438;13.502;2022-07-17T18:26:50;29.00;1.00
3288;DHT22;3260;52.438;13.502;2022-07-17T18:29:18;28.30;1.00
3288;DHT22;3260;52.438;13.502;2022-07-17T18:31:49;27.70;1.00
3288;DHT22;3260;52.438;13.502;2022-07-17T18:34:18;27.30;1.00
3288;DHT22;3260;52.438;13.502;2022-07-17T18:36:47;26.80;1.00
3288;DHT22;3260;52.438;13.502;2022-07-17T18:39:15;26.40;1.00
3288;DHT22;3260;52.438;13.502;2022-07-17T18:41:45;25.90;1.00
3288;DHT22;3260;52.438;13.502;2022-07-17T18:44:13;25.60;1.00
3288;DHT22;3260;52.438;13.502;2022-07-17T18:46:41;25.30;1.00
3288;DHT22;3260;52.438;13.502;2022-07-17T18:49:10;25.00;1.00
3288;DHT22;3260;52.438;13.502;2022-07-17T18:51:38;24.70;1.00
3288;DHT22;3260;52.438;13.502;2022-07-17T18:54:07;24.50;1.00
3288;DHT22;3260;52.438;13.502;2022-07-17T18:56:35;24.30;1.00
3288;DHT22;3260;52.438;13.502;2022-07-17T18:59:05;24.10;1.00
3288;DHT22;3260;52.438;13.502;2022-07-17T19:01:33;23.80;1.00
3288;DHT22;3260;52.438;13.502;2022-07-17T19:04:02;23.60;1.00
3288;DHT22;3260;52.438;13.502;2022-07-17T19:06:31;23.40;1.00
3288;DHT22;3260;52.438;13.502;2022-07-17T19:09:02;23.20;1.00
3288;DHT22;3260;52.438;13.502;2022-07-17T19:11:31;23.00;1.00
3288;DHT22;3260;52.438;13.502;2022-07-17T19:14:00;22.80;1.00
3288;DHT22;3260;52.438;13.502;2022-07-17T19:16:30;22.60;1.00
3288;DHT22;3260;52.438;13.502;2022-07-17T19:18:59;22.50;1.00
3288;DHT22;3260;52.438;13.502;2022-07-17T19:21:27;22.30;1.00
3288;DHT22;3260;52.438;13.502;2022-07-17T19:23:56;22.20;1.00
3288;DHT22;3260;52.438;13.502;2022-07-17T19:26:25;22.00;1.00
3288;DHT22;3260;52.438;13.502;2022-07-17T19:28:53;21.90;1.00
3288;DHT22;3260;52.438;13.502;2022-07-17T19:31:22;21.70;1.00
3288;DHT22;3260;52.438;13.502;2022-07-17T19:33:57;21.60;1.00
3288;DHT22;3260;52.438;13.502;2022-07-17T19:36:25;21.50;1.00
3288;DHT22;3260;52.438;13.502;2022-07-17T19:38:53;21.40;1.00
3288;DHT22;3260;52.438;13.502;2022-07-17T19:41:21;21.30;1.00
3288;DHT22;3260;52.438;13.502;2022-07-17T19:43:49;21.20;1.00
3288;DHT22;3260;52.438;13.502;2022-07-17T19:46:18;21.10;1.00
3288;DHT22;3260;52.438;13.502;2022-07-17T19:48:47;21.00;1.00
3288;DHT22;3260;52.438;13.502;2022-07-17T19:51:17;20.90;1.00
3288;DHT22;3260;52.438;13.502;2022-07-17T19:53:52;20.80;1.00
3288;DHT22;3260;52.438;13.502;2022-07-17T19:56:20;20.70;1.00
3288;DHT22;3260;52.438;13.502;2022-07-17T19:58:50;20.60;1.00
3288;DHT22;3260;52.438;13.502;2022-07-17T20:01:21;20.60;1.00
3288;DHT22;3260;52.438;13.502;2022-07-17T20:03:53;20.50;1.00
3288;DHT22;3260;52.438;13.502;2022-07-17T20:06:24;20.40;1.00
3288;DHT22;3260;52.438;13.502;2022-07-17T20:08:52;20.40;1.00
3288;DHT22;3260;52.438;13.502;2022-07-17T20:11:20;20.30;1.00
3288;DHT22;3260;52.438;13.502;2022-07-17T20:13:49;20.20;1.00
3288;DHT22;3260;52.438;13.502;2022-07-17T20:16:21;20.20;1.00
3288;DHT22;3260;52.438;13.502;2022-07-17T20:18:49;20.10;1.00